Time;durP1;ratioP1;P1;durP2;ratioP2;P2;SDS_P1;SDS_P2;PMS_P1;PMS_P2;Temp;Humidity;BMP_temperature;BMP_pressure;BME280_temperature;BME280_humidity;BME280_pressure;Samples;Min_cycle;Max_cycle;Signal;HPM_P1;HPM_P2
2023/04/29 00:00:49;;;;;;;5.30;3.60;;;17.20;99.90;;;;;;5073793;28;20233;-70
2023/04/29 00:03:17;;;;;;;5.32;3.83;;;17.30;99.90;;;;;;5073517;28;20237;-70
2023/04/29 00:05:46;;;;;;;6.78;3.58;;;17.30;99.90;;;;;;5073065;28;20206;-71
2023/04/29 00:08:13;;;;;;;8.38;3.53;;;17.30;99.90;;;;;;5073481;28;20213;-71
2023/04/29 00:10:41;;;;;;;3.50;2.97;;;17.30;99.90;;;;;;5072967;28;20680;-70
2023/04/29 00:13:07;;;;;;;4.82;3.30;;;17.30;99.90;;;;;;5073161;28;20258;-71
2023/04/29 00:15:36;;;;;;;3.78;3.47;;;17.30;99.90;;;;;;5072355;28;20242;-71
2023/04/29 00:18:03;;;;;;;4.05;3.28;;;17.30;99.90;;;;;;5072825;28;20198;-71
2023/04/29 00:20:30;;;;;;;5.45;3.67;;;17.30;99.90;;;;;;5072995;28;20230;-71
2023/04/29 00:22:58;;;;;;;6.88;3.67;;;17.20;99.90;;;;;;5073181;28;20208;-71
2023/04/29 00:25:25;;;;;;;4.15;3.75;;;17.30;99.90;;;;;;5072782;28;20202;-71
2023/04/29 00:27:52;;;;;;;4.80;3.67;;;17.20;99.90;;;;;;5072988;28;20228;-71
2023/04/29 00:30:19;;;;;;;3.88;3.53;;;17.20;99.90;;;;;;5073306;28;20284;-70
2023/04/29 00:32:46;;;;;;;7.03;4.63;;;17.20;99.90;;;;;;5072884;28;20260;-71
2023/04/29 00:35:13;;;;;;;6.60;4.30;;;17.20;99.90;;;;;;5072757;28;20230;-71
2023/04/29 00:37:40;;;;;;;4.90;4.15;;;17.20;99.90;;;;;;5072504;28;20208;-71
2023/04/29 00:40:14;;;;;;;7.82;4.35;;;17.10;99.90;;;;;;5072604;28;20696;-70
2023/04/29 00:42:40;;;;;;;7.00;3.75;;;17.10;99.90;;;;;;5072351;28;20203;-71
2023/04/29 00:45:10;;;;;;;4.13;3.67;;;17.10;99.90;;;;;;5072913;28;20245;-71
2023/04/29 00:47:37;;;;;;;3.90;3.50;;;17.20;99.90;;;;;;5072245;28;20210;-71
2023/04/29 00:50:05;;;;;;;7.35;3.92;;;17.20;99.90;;;;;;5072710;28;20237;-71
2023/04/29 00:52:32;;;;;;;4.95;3.78;;;17.10;99.90;;;;;;5071982;28;20202;-71
2023/04/29 00:54:59;;;;;;;5.63;5.05;;;17.10;99.90;;;;;;5072326;28;20680;-72
2023/04/29 00:57:29;;;;;;;9.55;4.28;;;17.10;99.90;;;;;;5072001;28;20248;-72
2023/04/29 00:59:56;;;;;;;8.48;4.13;;;17.20;99.90;;;;;;5072165;28;20202;-71
2023/04/29 01:02:24;;;;;;;7.43;4.15;;;17.20;99.90;;;;;;5071921;28;20246;-71
2023/04/29 01:04:51;;;;;;;8.02;3.58;;;17.20;99.90;;;;;;5072173;28;20202;-72
2023/04/29 01:07:23;;;;;;;7.32;4.32;;;17.30;99.90;;;;;;5072531;28;20260;-72
2023/04/29 01:09:59;;;;;;;5.25;4.00;;;17.30;99.90;;;;;;5072183;28;20241;-71
2023/04/29 01:12:35;;;;;;;5.05;4.57;;;17.30;99.90;;;;;;5071587;28;20237;-72
2023/04/29 01:15:06;;;;;;;5.38;4.15;;;17.40;99.90;;;;;;5071743;28;20600;-71
2023/04/29 01:17:40;;;;;;;5.03;4.32;;;17.40;99.90;;;;;;5071742;28;20216;-71
2023/04/29 01:20:09;;;;;;;6.35;4.60;;;17.40;99.90;;;;;;5071986;28;20213;-71
2023/04/29 01:22:38;;;;;;;7.10;5.18;;;17.40;99.90;;;;;;5071553;28;20209;-72
2023/04/29 01:25:06;;;;;;;5.00;4.00;;;17.40;99.90;;;;;;5072017;28;20297;-71
2023/04/29 01:27:37;;;;;;;5.78;4.50;;;17.40;99.90;;;;;;5071446;28;20233;-71
2023/04/29 01:30:13;;;;;;;4.57;4.00;;;17.50;99.90;;;;;;5071560;28;20238;-72
2023/04/29 01:32:51;;;;;;;4.93;3.38;;;17.50;99.90;;;;;;5071393;28;20237;-72
2023/04/29 01:35:32;;;;;;;3.97;3.58;;;17.50;99.90;;;;;;5071959;28;20276;-71
2023/04/29 01:38:09;;;;;;;3.90;3.55;;;17.50;99.90;;;;;;5071705;28;20311;-71
2023/04/29 01:40:46;;;;;;;4.63;4.18;;;17.50;99.90;;;;;;5071000;28;20248;-71
2023/04/29 01:43:15;;;;;;;4.90;4.22;;;17.50;99.90;;;;;;5071593;28;20298;-71
2023/04/29 01:45:43;;;;;;;4.88;4.30;;;17.50;99.90;;;;;;5071125;28;20202;-71
2023/04/29 01:48:11;;;;;;;7.45;4.93;;;17.50;99.90;;;;;;5071596;28;20203;-71
2023/04/29 01:50:38;;;;;;;5.75;3.80;;;17.50;99.90;;;;;;5071094;28;20661;-72
2023/04/29 01:53:05;;;;;;;11.30;4.80;;;17.50;99.90;;;;;;5071209;28;20202;-71
2023/04/29 01:55:32;;;;;;;9.35;4.70;;;17.50;99.90;;;;;;5070956;28;20735;-71
2023/04/29 01:58:01;;;;;;;9.45;5.57;;;17.50;99.90;;;;;;5071326;28;20226;-71
2023/04/29 02:00:27;;;;;;;8.40;5.60;;;17.50;99.90;;;;;;5070859;28;20242;-71
2023/04/29 02:02:54;;;;;;;7.30;5.38;;;17.50;99.90;;;;;;5071305;28;20256;-71
2023/04/29 02:05:21;;;;;;;5.88;4.28;;;17.50;99.90;;;;;;5071168;28;20263;-72
2023/04/29 02:07:48;;;;;;;6.18;5.57;;;17.50;99.90;;;;;;5071365;28;20202;-71
2023/04/29 02:10:15;;;;;;;7.03;5.07;;;17.50;99.90;;;;;;5071142;28;20645;-72
2023/04/29 02:12:42;;;;;;;6.40;4.15;;;17.50;99.90;;;;;;5070819;28;21097;-72
2023/04/29 02:15:11;;;;;;;12.15;5.03;;;17.50;99.90;;;;;;5070773;28;20295;-72
2023/04/29 02:17:38;;;;;;;9.43;4.55;;;17.50;99.90;;;;;;5070426;28;20244;-71
2023/04/29 02:20:05;;;;;;;6.22;4.00;;;17.50;99.90;;;;;;5070969;28;20241;-72
2023/04/29 02:22:32;;;;;;;5.03;4.63;;;17.50;99.90;;;;;;5070627;28;20238;-71
2023/04/29 02:24:59;;;;;;;5.47;4.80;;;17.50;99.90;;;;;;5071008;28;20248;-71
2023/04/29 02:27:26;;;;;;;6.53;5.13;;;17.50;99.90;;;;;;5070489;28;20206;-71
2023/04/29 02:29:53;;;;;;;10.75;5.20;;;17.50;99.90;;;;;;5070816;28;20237;-71
2023/04/29 02:32:21;;;;;;;5.65;4.60;;;17.50;99.90;;;;;;5071042;28;20723;-71
2023/04/29 02:34:49;;;;;;;5.40;4.38;;;17.50;99.90;;;;;;5071027;28;20713;-71
2023/04/29 02:37:15;;;;;;;5.45;4.80;;;17.50;99.90;;;;;;5070998;28;20206;-71
2023/04/29 02:39:42;;;;;;;7.60;5.30;;;17.60;99.90;;;;;;5069715;28;20742;-71
2023/04/29 02:42:09;;;;;;;5.72;5.00;;;17.50;99.90;;;;;;5070746;28;20244;-71
2023/04/29 02:44:36;;;;;;;8.13;4.65;;;17.50;99.90;;;;;;5070402;28;20237;-71
2023/04/29 02:47:03;;;;;;;11.38;6.95;;;17.60;99.90;;;;;;5070843;28;20312;-71
2023/04/29 02:49:31;;;;;;;8.23;4.32;;;17.50;99.90;;;;;;5070338;28;20202;-71
2023/04/29 02:51:58;;;;;;;5.93;4.57;;;17.60;99.90;;;;;;5070605;28;20292;-71
2023/04/29 02:54:25;;;;;;;5.20;4.70;;;17.60;99.90;;;;;;5070395;28;20328;-71
2023/04/29 02:56:52;;;;;;;7.10;5.22;;;17.50;99.90;;;;;;5070577;28;20202;-71
2023/04/29 02:59:19;;;;;;;7.63;4.70;;;17.50;99.90;;;;;;5070880;28;20264;-71
2023/04/29 03:01:46;;;;;;;6.00;5.22;;;17.50;99.90;;;;;;5070634;28;20202;-71
2023/04/29 03:04:13;;;;;;;7.68;5.80;;;17.50;99.90;;;;;;5070369;28;20242;-71
2023/04/29 03:06:42;;;;;;;8.75;5.43;;;17.50;99.90;;;;;;5070099;28;20238;-71
2023/04/29 03:09:09;;;;;;;9.52;5.90;;;17.50;99.90;;;;;;5070439;28;20213;-71
2023/04/29 03:11:36;;;;;;;7.47;5.75;;;17.50;99.90;;;;;;5070119;28;20319;-71
2023/04/29 03:14:03;;;;;;;13.98;5.88;;;17.60;99.90;;;;;;5070337;28;20273;-71
2023/04/29 03:16:30;;;;;;;8.55;4.65;;;17.50;99.90;;;;;;5070003;28;20233;-71
2023/04/29 03:18:57;;;;;;;7.43;4.43;;;17.50;99.90;;;;;;5070366;28;20743;-71
2023/04/29 03:21:25;;;;;;;5.72;4.95;;;17.50;99.90;;;;;;5070008;28;20228;-71
2023/04/29 03:23:54;;;;;;;9.20;5.60;;;17.50;99.90;;;;;;5070601;28;20256;-71
2023/04/29 03:26:23;;;;;;;9.55;5.80;;;17.50;99.90;;;;;;5070297;28;20245;-71
2023/04/29 03:28:50;;;;;;;9.52;5.90;;;17.50;99.90;;;;;;5070256;28;20207;-71
2023/04/29 03:31:19;;;;;;;7.93;5.45;;;17.50;99.90;;;;;;5070551;28;20700;-71
2023/04/29 03:33:46;;;;;;;10.15;6.32;;;17.40;99.90;;;;;;5070476;28;20207;-71
2023/04/29 03:36:14;;;;;;;8.93;5.32;;;17.40;99.90;;;;;;5070439;28;20276;-71
2023/04/29 03:38:41;;;;;;;9.15;4.82;;;17.40;99.90;;;;;;5069860;28;20263;-71
2023/04/29 03:41:09;;;;;;;10.02;5.35;;;17.40;99.90;;;;;;5070129;28;20232;-72
2023/04/29 03:43:36;;;;;;;7.05;5.50;;;17.40;99.90;;;;;;5069803;28;20210;-71
2023/04/29 03:46:03;;;;;;;7.95;5.35;;;17.40;99.90;;;;;;5070154;28;20230;-71
2023/04/29 03:48:30;;;;;;;6.07;5.45;;;17.40;99.90;;;;;;5069723;28;20681;-71
2023/04/29 03:50:57;;;;;;;9.52;5.75;;;17.40;99.90;;;;;;5070351;28;20295;-71
2023/04/29 03:53:25;;;;;;;10.88;6.30;;;17.40;99.90;;;;;;5073158;28;20237;-71
2023/04/29 03:55:51;;;;;;;7.00;5.85;;;17.40;99.90;;;;;;5073430;28;20237;-72
2023/04/29 03:58:20;;;;;;;11.20;5.75;;;17.40;99.90;;;;;;5073744;28;20237;-71
2023/04/29 04:00:47;;;;;;;9.00;6.05;;;17.40;99.90;;;;;;5073610;28;20237;-71
2023/04/29 04:03:14;;;;;;;10.85;6.35;;;17.40;99.90;;;;;;5073395;28;20744;-71
2023/04/29 04:05:40;;;;;;;8.68;5.70;;;17.40;99.90;;;;;;5072889;28;20750;-71
2023/04/29 04:08:07;;;;;;;9.18;6.47;;;17.40;99.90;;;;;;5073483;28;20241;-71
2023/04/29 04:10:34;;;;;;;10.60;6.20;;;17.40;99.90;;;;;;5072770;28;20249;-71
2023/04/29 04:13:01;;;;;;;8.95;5.80;;;17.30;99.90;;;;;;5071855;28;20246;-71
2023/04/29 04:15:29;;;;;;;6.05;5.43;;;17.30;99.90;;;;;;5071279;28;20651;-71
2023/04/29 04:17:56;;;;;;;9.13;6.32;;;17.30;99.90;;;;;;5073282;28;20244;-71
2023/04/29 04:20:23;;;;;;;13.40;7.07;;;17.30;99.90;;;;;;5060367;28;20238;-71
2023/04/29 04:22:50;;;;;;;7.88;6.22;;;17.30;99.90;;;;;;5052909;28;20234;-71
2023/04/29 04:25:17;;;;;;;9.73;6.10;;;17.30;99.90;;;;;;5053176;28;20198;-71
2023/04/29 04:27:44;;;;;;;9.85;6.97;;;17.30;99.90;;;;;;5052425;28;20230;-71
2023/04/29 04:30:12;;;;;;;9.82;6.13;;;17.30;99.90;;;;;;5052841;28;20246;-71
2023/04/29 04:32:40;;;;;;;9.07;6.55;;;17.20;99.90;;;;;;5065651;28;20202;-71
2023/04/29 04:35:08;;;;;;;7.40;6.68;;;17.20;99.90;;;;;;5072855;28;20258;-71
2023/04/29 04:37:34;;;;;;;8.80;6.32;;;17.20;99.90;;;;;;5072137;28;20716;-71
2023/04/29 04:40:01;;;;;;;13.13;8.13;;;17.20;99.90;;;;;;5072599;28;20234;-70
2023/04/29 04:42:28;;;;;;;7.72;7.03;;;17.20;99.90;;;;;;5072377;28;20685;-71
2023/04/29 04:44:56;;;;;;;12.00;7.18;;;17.20;99.90;;;;;;5072790;28;20237;-70
2023/04/29 04:47:23;;;;;;;11.55;7.95;;;17.20;99.90;;;;;;5072210;28;20207;-70
2023/04/29 04:49:51;;;;;;;13.27;8.27;;;17.20;99.90;;;;;;5072908;28;20275;-70
2023/04/29 04:52:21;;;;;;;13.52;7.78;;;17.20;99.90;;;;;;5072545;28;20229;-70
2023/04/29 04:54:47;;;;;;;7.28;6.68;;;17.20;99.90;;;;;;5072578;28;20236;-70
2023/04/29 04:57:15;;;;;;;7.60;6.82;;;17.20;99.90;;;;;;5072200;28;20229;-71
2023/04/29 04:59:42;;;;;;;11.95;7.70;;;17.20;99.90;;;;;;5071861;28;20206;-70
2023/04/29 05:02:09;;;;;;;7.65;6.72;;;17.20;99.90;;;;;;5071372;28;20581;-71
2023/04/29 05:04:36;;;;;;;10.43;8.13;;;17.20;99.90;;;;;;5071904;28;20285;-70
2023/04/29 05:07:04;;;;;;;10.75;7.15;;;17.20;99.90;;;;;;5067716;28;20246;-70
2023/04/29 05:09:31;;;;;;;10.00;7.25;;;17.20;99.90;;;;;;5060938;28;20246;-70
2023/04/29 05:11:58;;;;;;;7.63;6.78;;;17.30;99.90;;;;;;5062917;28;20238;-68
2023/04/29 05:14:25;;;;;;;6.70;6.07;;;17.30;99.90;;;;;;5051702;28;20229;-68
2023/04/29 05:16:52;;;;;;;10.30;7.03;;;17.40;99.90;;;;;;5071947;28;20241;-68
2023/04/29 05:19:19;;;;;;;23.45;15.93;;;17.30;99.90;;;;;;5054659;28;20249;-68
2023/04/29 05:21:46;;;;;;;11.35;9.48;;;17.30;99.90;;;;;;5051647;28;20697;-68
2023/04/29 05:24:15;;;;;;;12.52;9.32;;;17.30;99.90;;;;;;5051817;28;20248;-68
2023/04/29 05:26:42;;;;;;;9.23;8.32;;;17.30;99.90;;;;;;5051146;28;20215;-70
2023/04/29 05:29:09;;;;;;;8.50;7.45;;;17.30;99.90;;;;;;5051835;28;20203;-70
2023/04/29 05:31:37;;;;;;;9.30;8.43;;;17.30;99.90;;;;;;5051392;28;20671;-69
2023/04/29 05:34:04;;;;;;;9.13;7.18;;;17.30;99.90;;;;;;5051537;28;20221;-68
2023/04/29 05:36:31;;;;;;;8.75;7.40;;;17.40;99.90;;;;;;5050987;28;20689;-68
2023/04/29 05:38:58;;;;;;;9.20;8.32;;;17.40;99.90;;;;;;5054704;28;20301;-68
2023/04/29 05:41:27;;;;;;;8.57;7.82;;;17.40;99.90;;;;;;5063015;28;20256;-68
2023/04/29 05:43:53;;;;;;;8.52;7.50;;;17.40;99.90;;;;;;5060326;28;20226;-68
2023/04/29 05:46:21;;;;;;;9.60;8.13;;;17.40;99.90;;;;;;5066610;28;20242;-70
2023/04/29 05:48:48;;;;;;;10.00;9.10;;;17.40;99.90;;;;;;5069514;28;20261;-69
2023/04/29 05:51:15;;;;;;;8.48;7.57;;;17.30;99.90;;;;;;5070003;28;20233;-69
2023/04/29 05:53:42;;;;;;;9.48;8.57;;;17.30;99.90;;;;;;5070637;28;20267;-69
2023/04/29 05:56:09;;;;;;;9.27;7.80;;;17.40;99.90;;;;;;5071046;28;20281;-69
2023/04/29 05:58:38;;;;;;;7.97;7.10;;;17.40;99.90;;;;;;5070645;28;20198;-69
2023/04/29 06:01:05;;;;;;;9.75;8.68;;;17.40;99.90;;;;;;5070148;28;20195;-68
2023/04/29 06:03:31;;;;;;;9.00;8.13;;;17.50;99.90;;;;;;5070359;28;20245;-69
2023/04/29 06:05:59;;;;;;;11.15;9.23;;;17.50;99.90;;;;;;5070909;28;20735;-69
2023/04/29 06:08:25;;;;;;;10.30;8.98;;;17.50;99.90;;;;;;5070779;28;20256;-69
2023/04/29 06:10:52;;;;;;;9.02;8.05;;;17.50;99.90;;;;;;5071090;28;20291;-69
2023/04/29 06:13:19;;;;;;;9.25;8.40;;;17.60;99.90;;;;;;5070978;28;20233;-69
2023/04/29 06:15:48;;;;;;;11.45;7.82;;;17.60;99.90;;;;;;5070116;28;20257;-69
2023/04/29 06:18:15;;;;;;;10.52;7.65;;;17.60;99.90;;;;;;5070681;28;20253;-70
2023/04/29 06:20:42;;;;;;;9.98;7.75;;;17.70;99.90;;;;;;5070245;28;20732;-69
2023/04/29 06:23:08;;;;;;;12.23;9.20;;;17.60;99.90;;;;;;5071025;28;20241;-69
2023/04/29 06:25:35;;;;;;;9.80;8.90;;;17.60;99.90;;;;;;5070491;28;20206;-70
2023/04/29 06:28:03;;;;;;;9.13;8.23;;;17.60;99.90;;;;;;5064617;28;20239;-69
2023/04/29 06:30:30;;;;;;;9.48;8.32;;;17.60;99.90;;;;;;5063218;28;20682;-69
2023/04/29 06:32:58;;;;;;;11.18;9.07;;;17.60;99.90;;;;;;5061184;28;20670;-70
2023/04/29 06:35:25;;;;;;;10.43;9.38;;;17.60;99.90;;;;;;5059371;28;20279;-69
2023/04/29 06:37:52;;;;;;;9.60;8.60;;;17.60;99.90;;;;;;5056216;28;20241;-69
2023/04/29 06:40:19;;;;;;;9.20;8.30;;;17.60;99.90;;;;;;5054313;28;20229;-69
2023/04/29 06:42:46;;;;;;;11.80;8.25;;;17.60;99.90;;;;;;5061030;28;20259;-70
2023/04/29 06:45:13;;;;;;;8.43;7.40;;;17.60;99.90;;;;;;5070616;28;20237;-71
2023/04/29 06:47:40;;;;;;;9.75;8.32;;;17.60;99.90;;;;;;5067547;28;20238;-70
2023/04/29 06:50:09;;;;;;;11.20;9.10;;;17.60;99.90;;;;;;5070005;28;20237;-70
2023/04/29 06:52:36;;;;;;;11.98;9.05;;;17.70;99.90;;;;;;5074168;28;20198;-70
2023/04/29 06:55:03;;;;;;;10.07;8.73;;;17.70;99.90;;;;;;5066784;28;20244;-70
2023/04/29 06:57:30;;;;;;;10.48;8.65;;;17.70;99.90;;;;;;5067868;28;20585;-70
2023/04/29 06:59:57;;;;;;;13.65;9.27;;;17.70;99.90;;;;;;5065007;28;20228;-69
2023/04/29 07:02:24;;;;;;;10.95;9.82;;;17.70;99.90;;;;;;5065868;28;20728;-70
2023/04/29 07:04:51;;;;;;;11.57;9.10;;;17.70;99.90;;;;;;5059919;28;20616;-70
2023/04/29 07:07:19;;;;;;;12.07;9.35;;;17.70;99.90;;;;;;5063041;28;20265;-70
2023/04/29 07:09:47;;;;;;;10.18;9.13;;;17.70;99.90;;;;;;5050633;28;20264;-70
2023/04/29 07:12:14;;;;;;;11.30;9.75;;;17.70;99.90;;;;;;5049890;28;20202;-71
2023/04/29 07:14:41;;;;;;;13.02;9.85;;;17.70;99.90;;;;;;5049917;28;20242;-71
2023/04/29 07:17:08;;;;;;;10.73;9.45;;;17.60;99.90;;;;;;5050373;28;20234;-71
2023/04/29 07:19:36;;;;;;;10.77;9.75;;;17.70;99.90;;;;;;5049233;28;20238;-70
2023/04/29 07:22:03;;;;;;;13.68;10.05;;;17.70;99.90;;;;;;5050344;28;20641;-71
2023/04/29 07:24:31;;;;;;;13.25;9.77;;;17.80;99.90;;;;;;5058670;28;20218;-70
2023/04/29 07:26:58;;;;;;;15.07;11.20;;;17.70;99.90;;;;;;5071336;28;20272;-71
2023/04/29 07:29:24;;;;;;;11.55;10.35;;;17.60;99.90;;;;;;5057301;28;20230;-71
2023/04/29 07:31:52;;;;;;;12.70;10.20;;;17.60;99.90;;;;;;5054792;28;20237;-71
2023/04/29 07:34:19;;;;;;;12.63;11.30;;;17.60;99.90;;;;;;5070839;28;20202;-71
2023/04/29 07:36:46;;;;;;;15.10;11.45;;;17.70;99.90;;;;;;5073907;28;20282;-71
2023/04/29 07:39:14;;;;;;;13.52;10.73;;;17.70;99.90;;;;;;5073770;28;20240;-71
2023/04/29 07:41:42;;;;;;;12.05;10.15;;;17.70;99.90;;;;;;5073761;28;20206;-71
2023/04/29 07:44:09;;;;;;;12.55;10.00;;;17.70;99.90;;;;;;5072935;28;20233;-71
2023/04/29 07:46:36;;;;;;;15.85;11.23;;;17.80;99.90;;;;;;5073433;28;20230;-71
2023/04/29 07:49:04;;;;;;;11.95;10.68;;;17.80;99.90;;;;;;5073495;28;20670;-71
2023/04/29 07:51:31;;;;;;;11.10;9.95;;;18.00;99.90;;;;;;5073226;28;20198;-71
2023/04/29 07:53:58;;;;;;;12.73;9.60;;;18.00;99.90;;;;;;5073633;28;20232;-70
2023/04/29 07:56:25;;;;;;;15.02;10.35;;;18.00;99.90;;;;;;5073200;28;20276;-71
2023/04/29 07:58:53;;;;;;;16.33;11.70;;;18.00;99.90;;;;;;5073608;28;20206;-71
2023/04/29 08:01:20;;;;;;;12.07;10.30;;;18.00;99.90;;;;;;5073399;28;20613;-71
2023/04/29 08:03:47;;;;;;;13.55;10.48;;;17.90;99.90;;;;;;5072741;28;20331;-71
2023/04/29 08:06:14;;;;;;;11.95;10.65;;;17.90;99.90;;;;;;5073465;28;20245;-71
2023/04/29 08:08:41;;;;;;;13.00;11.00;;;17.90;99.90;;;;;;5072985;28;20242;-71
2023/04/29 08:11:08;;;;;;;11.02;9.80;;;17.90;99.90;;;;;;5065061;28;20203;-70
2023/04/29 08:13:35;;;;;;;10.23;9.07;;;17.90;99.90;;;;;;5068350;28;20670;-70
2023/04/29 08:16:03;;;;;;;9.40;8.10;;;17.90;99.90;;;;;;5070270;28;20311;-70
2023/04/29 08:18:30;;;;;;;9.63;7.95;;;17.90;99.90;;;;;;5055110;28;20249;-70
2023/04/29 08:20:57;;;;;;;14.48;10.85;;;17.90;99.90;;;;;;5073055;28;20240;-70
2023/04/29 08:23:24;;;;;;;10.68;8.88;;;17.90;99.90;;;;;;5052942;28;20234;-71
2023/04/29 08:25:52;;;;;;;13.05;9.00;;;17.90;99.90;;;;;;5053292;28;20245;-70
2023/04/29 08:28:19;;;;;;;9.52;8.63;;;17.90;99.90;;;;;;5053196;28;20289;-71
2023/04/29 08:30:46;;;;;;;9.73;8.52;;;18.00;99.90;;;;;;5052832;28;20237;-71
2023/04/29 08:33:14;;;;;;;10.88;8.32;;;18.00;99.90;;;;;;5052963;28;20203;-70
2023/04/29 08:35:41;;;;;;;13.00;9.18;;;18.00;99.90;;;;;;5052449;28;20203;-71
2023/04/29 08:38:09;;;;;;;9.57;8.23;;;18.10;99.90;;;;;;5052173;28;20230;-71
2023/04/29 08:40:41;;;;;;;9.57;8.07;;;18.00;99.90;;;;;;5052434;28;20249;-70
2023/04/29 08:43:09;;;;;;;9.93;8.25;;;18.00;99.90;;;;;;5052549;28;20249;-71
2023/04/29 08:45:38;;;;;;;13.02;11.18;;;17.90;99.90;;;;;;5052248;28;20290;-71
2023/04/29 08:48:06;;;;;;;11.10;9.45;;;17.90;99.90;;;;;;5052618;28;20210;-71
2023/04/29 08:50:37;;;;;;;14.07;9.63;;;17.90;99.90;;;;;;5052085;28;20242;-71
2023/04/29 08:53:05;;;;;;;13.60;9.25;;;18.00;99.90;;;;;;5052574;28;20207;-71
2023/04/29 08:55:36;;;;;;;9.85;8.35;;;18.10;99.90;;;;;;5052323;28;20214;-71
2023/04/29 08:58:04;;;;;;;10.38;8.55;;;18.20;99.90;;;;;;5052559;28;20207;-71
2023/04/29 09:00:32;;;;;;;9.70;8.70;;;18.50;99.90;;;;;;5051901;28;20237;-71
2023/04/29 09:03:01;;;;;;;9.55;7.40;;;18.80;99.90;;;;;;5052332;28;20733;-71
2023/04/29 09:05:28;;;;;;;8.10;6.63;;;18.90;99.90;;;;;;5052227;28;20206;-70
2023/04/29 09:08:02;;;;;;;9.43;7.10;;;18.90;99.90;;;;;;5071288;28;20287;-70
2023/04/29 09:10:29;;;;;;;8.13;6.88;;;18.80;99.90;;;;;;5071936;28;20206;-71
2023/04/29 09:12:57;;;;;;;8.73;7.80;;;19.00;99.90;;;;;;5071938;28;20203;-71
2023/04/29 09:15:24;;;;;;;7.60;6.45;;;19.40;99.90;;;;;;5071429;28;20210;-70
2023/04/29 09:17:52;;;;;;;7.13;6.43;;;19.60;99.90;;;;;;5072201;28;20265;-70
2023/04/29 09:20:29;;;;;;;7.75;6.45;;;19.90;99.90;;;;;;5071152;28;20279;-70
2023/04/29 09:23:00;;;;;;;8.68;6.28;;;20.00;99.90;;;;;;5058291;28;20241;-70
2023/04/29 09:25:27;;;;;;;7.60;6.80;;;20.20;99.90;;;;;;5057874;28;20210;-70
2023/04/29 09:27:54;;;;;;;8.15;7.00;;;20.30;99.90;;;;;;5057645;28;20245;-70
2023/04/29 09:30:22;;;;;;;7.68;6.55;;;20.10;99.90;;;;;;5055891;28;20246;-70
2023/04/29 09:33:06;;;;;;;8.45;6.75;;;19.90;99.90;;;;;;5058353;28;20268;-74
2023/04/29 09:35:33;;;;;;;7.90;6.60;;;19.90;99.90;;;;;;5067772;28;20271;-73
2023/04/29 09:38:13;;;;;;;6.13;5.43;;;19.90;99.90;;;;;;5062967;28;20291;-72
2023/04/29 09:40:41;;;;;;;5.85;5.35;;;19.80;99.90;;;;;;5059732;28;20704;-72
2023/04/29 09:43:14;;;;;;;6.13;5.53;;;20.10;99.90;;;;;;5062569;28;20203;-74
2023/04/29 09:45:42;;;;;;;5.65;5.15;;;20.50;99.90;;;;;;5050853;28;20206;-70
2023/04/29 09:48:10;;;;;;;6.13;5.35;;;20.80;99.90;;;;;;5062451;28;20331;-73
2023/04/29 09:50:38;;;;;;;5.82;5.32;;;20.90;99.90;;;;;;5065400;28;20246;-73
2023/04/29 09:53:07;;;;;;;6.05;4.78;;;20.80;99.90;;;;;;5059184;28;20245;-72
2023/04/29 09:55:36;;;;;;;6.63;6.00;;;20.50;99.90;;;;;;5058603;28;20560;-71
2023/04/29 09:58:03;;;;;;;5.10;4.68;;;20.10;99.90;;;;;;5060709;28;20230;-72
2023/04/29 10:00:33;;;;;;;6.80;5.32;;;19.80;99.90;;;;;;5061920;28;20282;-74
2023/04/29 10:03:01;;;;;;;6.50;5.22;;;19.70;99.90;;;;;;5070996;28;20249;-73
2023/04/29 10:05:30;;;;;;;7.32;5.78;;;19.90;99.90;;;;;;5071033;28;20289;-73
2023/04/29 10:07:59;;;;;;;6.13;5.53;;;20.30;99.90;;;;;;5071336;28;20199;-75
2023/04/29 10:10:28;;;;;;;5.72;5.22;;;20.70;99.90;;;;;;5070986;28;20208;-75
2023/04/29 10:12:59;;;;;;;5.55;5.05;;;19.50;99.90;;;;;;5070872;28;20225;-75
2023/04/29 10:15:29;;;;;;;7.35;4.60;;;19.50;99.90;;;;;;5066858;28;20236;-74
2023/04/29 10:18:03;;;;;;;5.68;5.10;;;20.20;99.90;;;;;;5070372;28;20666;-74
2023/04/29 10:20:31;;;;;;;6.05;5.47;;;20.10;99.90;;;;;;5069875;28;20251;-74
2023/04/29 10:23:00;;;;;;;6.30;5.43;;;20.00;99.90;;;;;;5066340;28;20238;-75
2023/04/29 10:25:28;;;;;;;6.13;5.38;;;21.60;1.00;;;;;;5063261;28;20242;-74
2023/04/29 10:27:56;;;;;;;4.95;4.47;;;;;;;;;;5063211;28;20256;-75
2023/04/29 10:30:24;;;;;;;5.85;4.63;;;;;;;;;;5056019;28;20257;-73
2023/04/29 10:32:51;;;;;;;6.80;6.20;;;19.70;99.90;;;;;;5070826;28;20202;-71
2023/04/29 10:35:21;;;;;;;5.43;4.88;;;20.30;99.90;;;;;;5071001;28;20803;-74
2023/04/29 10:37:49;;;;;;;6.13;5.63;;;20.30;99.90;;;;;;5054700;28;20245;-74
2023/04/29 10:40:20;;;;;;;6.55;5.90;;;20.40;99.90;;;;;;5050780;28;20305;-74
2023/04/29 10:42:48;;;;;;;6.78;5.60;;;20.60;99.90;;;;;;5050709;28;20206;-72
2023/04/29 10:45:30;;;;;;;6.05;5.28;;;20.90;99.90;;;;;;5051139;28;20740;-74
2023/04/29 10:48:11;;;;;;;5.72;4.97;;;21.30;99.90;;;;;;5050404;28;20260;-73
2023/04/29 10:51:03;;;;;;;6.13;5.63;;;21.40;99.90;;;;;;5056517;28;20288;-72
2023/04/29 10:53:30;;;;;;;5.80;4.65;;;21.50;99.90;;;;;;5068876;28;20665;-73
2023/04/29 10:55:59;;;;;;;5.22;4.60;;;21.20;99.90;;;;;;5050514;28;20226;-72
2023/04/29 10:58:44;;;;;;;5.55;5.05;;;20.90;99.90;;;;;;5050311;28;20234;-72
2023/04/29 11:01:13;;;;;;;5.22;4.72;;;20.60;99.90;;;;;;5071987;28;20271;-73
2023/04/29 11:03:57;;;;;;;4.63;4.22;;;20.40;99.90;;;;;;5074251;28;20248;-73
2023/04/29 11:06:25;;;;;;;5.95;5.38;;;20.30;99.90;;;;;;5069320;28;20621;-73
2023/04/29 11:09:03;;;;;;;5.25;4.70;;;20.30;99.90;;;;;;5074533;28;20233;-72
2023/04/29 11:11:48;;;;;;;5.13;4.68;;;20.50;99.90;;;;;;5074221;28;20666;-73
2023/04/29 11:14:21;;;;;;;9.55;5.20;;;20.70;99.90;;;;;;5074650;28;20214;-72
2023/04/29 11:16:52;;;;;;;5.18;4.35;;;20.70;99.90;;;;;;5074503;28;20812;-72
2023/04/29 11:19:19;;;;;;;6.55;3.95;;;20.30;99.90;;;;;;5074618;28;20294;-73
2023/04/29 11:21:47;;;;;;;4.30;3.90;;;19.90;99.90;;;;;;5074369;28;20285;-72
2023/04/29 11:24:17;;;;;;;4.82;4.43;;;20.20;99.90;;;;;;5073952;28;20296;-72
2023/04/29 11:26:45;;;;;;;5.25;4.75;;;20.30;99.90;;;;;;5073619;28;20677;-71
2023/04/29 11:29:12;;;;;;;5.05;4.55;;;20.20;99.90;;;;;;5066196;28;20207;-72
2023/04/29 11:31:39;;;;;;;5.25;4.32;;;20.10;99.90;;;;;;5064189;28;20747;-71
2023/04/29 11:34:07;;;;;;;5.07;4.55;;;19.90;99.90;;;;;;5068652;28;20210;-74
2023/04/29 11:36:35;;;;;;;6.63;5.40;;;20.00;99.90;;;;;;5053693;28;20230;-73
2023/04/29 11:39:03;;;;;;;5.20;4.55;;;20.60;99.90;;;;;;5053726;28;20290;-71
2023/04/29 11:41:31;;;;;;;5.25;4.03;;;21.40;99.90;;;;;;5065875;28;20216;-73
2023/04/29 11:44:00;;;;;;;6.25;5.25;;;21.60;99.90;;;;;;5073567;28;20297;-73
2023/04/29 11:46:30;;;;;;;6.90;4.82;;;21.40;99.90;;;;;;5070979;28;20207;-72
2023/04/29 11:48:58;;;;;;;5.65;4.90;;;21.00;99.90;;;;;;5071944;28;20680;-74
2023/04/29 11:51:27;;;;;;;7.88;5.85;;;20.80;99.90;;;;;;5073251;28;20202;-72
2023/04/29 11:53:54;;;;;;;7.20;4.97;;;20.70;99.90;;;;;;5072880;28;20244;-74
2023/04/29 11:56:25;;;;;;;6.03;4.55;;;20.50;99.90;;;;;;5073792;28;20644;-73
2023/04/29 11:58:55;;;;;;;7.32;5.63;;;20.30;99.90;;;;;;5073672;28;20244;-72
2023/04/29 12:01:22;;;;;;;6.03;5.47;;;20.00;99.90;;;;;;5069001;28;20207;-72
2023/04/29 12:03:50;;;;;;;5.90;5.30;;;19.70;99.90;;;;;;5062345;28;20251;-74
2023/04/29 12:06:17;;;;;;;33.70;30.38;;;19.60;99.90;;;;;;5053974;28;20209;-69
2023/04/29 12:08:47;;;;;;;10.02;7.88;;;19.50;99.90;;;;;;5053006;28;20233;-70
2023/04/29 12:11:14;;;;;;;9.63;6.85;;;19.60;99.90;;;;;;5053025;28;20718;-70
2023/04/29 12:13:41;;;;;;;7.53;6.63;;;19.50;99.90;;;;;;5051986;28;20223;-69
2023/04/29 12:16:09;;;;;;;5.55;5.03;;;19.40;99.90;;;;;;5053081;28;20643;-69
2023/04/29 12:18:37;;;;;;;7.93;5.60;;;19.30;99.90;;;;;;5052698;28;20654;-68
2023/04/29 12:21:05;;;;;;;6.18;5.57;;;19.30;99.90;;;;;;5053432;28;20257;-69
2023/04/29 12:23:32;;;;;;;6.55;5.15;;;19.20;99.90;;;;;;5052515;28;20293;-70
2023/04/29 12:26:01;;;;;;;5.65;5.15;;;19.20;99.90;;;;;;5056330;28;20249;-69
2023/04/29 12:28:29;;;;;;;7.05;6.35;;;19.20;99.90;;;;;;5057477;28;20203;-69
2023/04/29 12:30:58;;;;;;;5.70;5.20;;;19.30;99.90;;;;;;5065773;28;20744;-69
2023/04/29 12:33:26;;;;;;;6.28;5.20;;;19.30;99.90;;;;;;5058850;28;20747;-69
2023/04/29 12:35:55;;;;;;;5.80;5.25;;;19.30;99.90;;;;;;5052919;28;20242;-69
2023/04/29 12:38:25;;;;;;;6.45;5.95;;;19.30;99.90;;;;;;5051981;28;20222;-70
2023/04/29 12:40:53;;;;;;;9.80;5.90;;;19.20;99.90;;;;;;5069684;28;20202;-69
2023/04/29 12:43:26;;;;;;;13.15;6.55;;;19.30;99.90;;;;;;5072311;28;20614;-70
2023/04/29 12:45:55;;;;;;;6.03;5.53;;;19.30;99.90;;;;;;5072345;28;20248;-70
2023/04/29 12:48:22;;;;;;;6.50;4.82;;;19.30;99.90;;;;;;5071961;28;20703;-69